sensor_id;sensor_type;location;lat;lon;timestamp;pressure;altitude;pressure_sealevel;temperature;humidity
79461;BME280;68929;42.666;23.324;2023-04-24T00:00:58;94275.91;;;15.54;51.47
79461;BME280;68929;42.666;23.324;2023-04-24T00:03:26;94282.41;;;15.68;50.90
79461;BME280;68929;42.666;23.324;2023-04-24T00:05:53;94254.78;;;15.20;51.59
79461;BME280;68929;42.666;23.324;2023-04-24T00:08:19;94260.38;;;14.97;51.24
79461;BME280;68929;42.666;23.324;2023-04-24T00:10:44;94256.88;;;15.18;52.08
79461;BME280;68929;42.666;23.324;2023-04-24T00:13:09;94256.91;;;15.23;51.67
79461;BME280;68929;42.666;23.324;2023-04-24T00:15:35;94263.69;;;15.36;51.45
79461;BME280;68929;42.666;23.324;2023-04-24T00:18:00;94226.69;;;15.40;50.19
79461;BME280;68929;42.666;23.324;2023-04-24T00:20:27;94226.78;;;15.45;50.97
79461;BME280;68929;42.666;23.324;2023-04-24T00:22:54;94237.25;;;15.25;51.62
79461;BME280;68929;42.666;23.324;2023-04-24T00:25:20;94258.56;;;15.30;52.10
79461;BME280;68929;42.666;23.324;2023-04-24T00:27:45;94239.25;;;14.64;50.08
79461;BME280;68929;42.666;23.324;2023-04-24T00:30:11;94258.78;;;14.53;52.65
79461;BME280;68929;42.666;23.324;2023-04-24T00:32:36;94247.91;;;14.76;52.14
79461;BME280;68929;42.666;23.324;2023-04-24T00:35:02;94253.94;;;14.93;51.67
79461;BME280;68929;42.666;23.324;2023-04-24T00:37:27;94238.19;;;14.27;51.25
79461;BME280;68929;42.666;23.324;2023-04-24T00:39:53;94218.81;;;14.48;52.08
79461;BME280;68929;42.666;23.324;2023-04-24T00:42:19;94238.38;;;14.80;51.90
79461;BME280;68929;42.666;23.324;2023-04-24T00:44:45;94242.31;;;14.99;51.25
79461;BME280;68929;42.666;23.324;2023-04-24T00:47:11;94253.16;;;15.19;51.60
79461;BME280;68929;42.666;23.324;2023-04-24T00:49:37;94220.59;;;15.12;51.94
79461;BME280;68929;42.666;23.324;2023-04-24T00:52:03;94244.41;;;15.51;50.66
79461;BME280;68929;42.666;23.324;2023-04-24T00:54:32;94246.00;;;15.47;49.92
79461;BME280;68929;42.666;23.324;2023-04-24T00:56:58;94241.28;;;15.32;49.79
79461;BME280;68929;42.666;23.324;2023-04-24T00:59:23;94234.03;;;15.23;48.50
79461;BME280;68929;42.666;23.324;2023-04-24T01:01:48;94233.47;;;15.20;50.22
79461;BME280;68929;42.666;23.324;2023-04-24T01:04:14;94236.16;;;15.26;49.94
79461;BME280;68929;42.666;23.324;2023-04-24T01:06:41;94249.72;;;15.46;50.09
79461;BME280;68929;42.666;23.324;2023-04-24T01:09:09;94220.00;;;15.32;50.34
79461;BME280;68929;42.666;23.324;2023-04-24T01:11:36;94229.75;;;15.48;50.02
79461;BME280;68929;42.666;23.324;2023-04-24T01:14:02;94224.59;;;15.42;51.00
79461;BME280;68929;42.666;23.324;2023-04-24T01:16:27;94218.53;;;15.46;50.47
79461;BME280;68929;42.666;23.324;2023-04-24T01:18:53;94210.69;;;15.35;50.41
79461;BME280;68929;42.666;23.324;2023-04-24T01:21:20;94205.69;;;15.70;50.37
79461;BME280;68929;42.666;23.324;2023-04-24T01:23:46;94193.34;;;15.59;49.39
79461;BME280;68929;42.666;23.324;2023-04-24T01:26:14;94204.38;;;15.72;49.40
79461;BME280;68929;42.666;23.324;2023-04-24T01:28:39;94182.59;;;15.49;49.73
79461;BME280;68929;42.666;23.324;2023-04-24T01:31:05;94216.69;;;15.47;50.76
79461;BME280;68929;42.666;23.324;2023-04-24T01:33:31;94192.47;;;15.21;51.01
79461;BME280;68929;42.666;23.324;2023-04-24T01:35:57;94198.75;;;15.10;50.71
79461;BME280;68929;42.666;23.324;2023-04-24T01:38:22;94197.91;;;15.05;51.00
79461;BME280;68929;42.666;23.324;2023-04-24T01:40:49;94224.03;;;15.08;50.84
79461;BME280;68929;42.666;23.324;2023-04-24T01:43:15;94215.72;;;15.04;50.59
79461;BME280;68929;42.666;23.324;2023-04-24T01:45:40;94219.03;;;15.16;51.06
79461;BME280;68929;42.666;23.324;2023-04-24T01:48:06;94215.53;;;14.84;51.02
79461;BME280;68929;42.666;23.324;2023-04-24T01:50:31;94205.13;;;14.83;51.42
79461;BME280;68929;42.666;23.324;2023-04-24T01:52:57;94206.06;;;14.93;51.70
79461;BME280;68929;42.666;23.324;2023-04-24T01:55:22;94212.97;;;14.94;51.38
79461;BME280;68929;42.666;23.324;2023-04-24T01:57:48;94213.78;;;14.95;51.77
79461;BME280;68929;42.666;23.324;2023-04-24T02:00:14;94197.91;;;14.78;51.51
79461;BME280;68929;42.666;23.324;2023-04-24T02:02:40;94217.47;;;14.94;51.30
79461;BME280;68929;42.666;23.324;2023-04-24T02:05:07;94204.81;;;14.79;50.82
79461;BME280;68929;42.666;23.324;2023-04-24T02:07:33;94179.56;;;14.55;51.89
79461;BME280;68929;42.666;23.324;2023-04-24T02:09:58;94180.81;;;14.48;52.08
79461;BME280;68929;42.666;23.324;2023-04-24T02:12:24;94204.59;;;14.59;51.75
79461;BME280;68929;42.666;23.324;2023-04-24T02:14:49;94190.44;;;14.54;51.89
79461;BME280;68929;42.666;23.324;2023-04-24T02:17:15;94196.16;;;14.67;51.31
79461;BME280;68929;42.666;23.324;2023-04-24T02:19:41;94196.16;;;14.67;51.83
79461;BME280;68929;42.666;23.324;2023-04-24T02:22:07;94192.09;;;14.38;52.04
79461;BME280;68929;42.666;23.324;2023-04-24T02:24:32;94184.09;;;14.16;52.81
79461;BME280;68929;42.666;23.324;2023-04-24T02:26:57;94180.91;;;13.98;53.64
79461;BME280;68929;42.666;23.324;2023-04-24T02:29:23;94187.41;;;14.07;52.75
79461;BME280;68929;42.666;23.324;2023-04-24T02:31:48;94166.91;;;14.24;53.26
79461;BME280;68929;42.666;23.324;2023-04-24T02:34:14;94173.38;;;14.50;52.42
79461;BME280;68929;42.666;23.324;2023-04-24T02:36:39;94188.16;;;14.62;51.52
79461;BME280;68929;42.666;23.324;2023-04-24T02:39:05;94198.81;;;14.89;50.82
79461;BME280;68929;42.666;23.324;2023-04-24T02:41:30;94171.59;;;14.82;51.33
79461;BME280;68929;42.666;23.324;2023-04-24T02:44:00;94179.09;;;14.63;51.19
79461;BME280;68929;42.666;23.324;2023-04-24T02:46:26;94172.13;;;14.57;50.88
79461;BME280;68929;42.666;23.324;2023-04-24T02:48:51;94144.41;;;14.53;51.86
79461;BME280;68929;42.666;23.324;2023-04-24T02:51:17;94162.53;;;14.56;51.91
79461;BME280;68929;42.666;23.324;2023-04-24T02:53:42;94176.50;;;14.68;52.36
79461;BME280;68929;42.666;23.324;2023-04-24T02:56:08;94155.34;;;14.83;51.52
79461;BME280;68929;42.666;23.324;2023-04-24T02:58:33;94175.09;;;14.87;51.33
79461;BME280;68929;42.666;23.324;2023-04-24T03:00:59;94178.75;;;14.81;51.15
79461;BME280;68929;42.666;23.324;2023-04-24T03:03:25;94186.69;;;14.76;51.83
79461;BME280;68929;42.666;23.324;2023-04-24T03:05:51;94182.31;;;14.65;51.96
79461;BME280;68929;42.666;23.324;2023-04-24T03:08:16;94163.53;;;14.50;52.63
79461;BME280;68929;42.666;23.324;2023-04-24T03:10:42;94196.34;;;14.61;52.63
79461;BME280;68929;42.666;23.324;2023-04-24T03:13:08;94170.41;;;14.46;52.38
79461;BME280;68929;42.666;23.324;2023-04-24T03:15:33;94168.25;;;14.43;52.51
79461;BME280;68929;42.666;23.324;2023-04-24T03:17:58;94177.94;;;14.54;52.20
79461;BME280;68929;42.666;23.324;2023-04-24T03:20:25;94197.34;;;14.76;52.03
79461;BME280;68929;42.666;23.324;2023-04-24T03:22:51;94170.94;;;14.48;51.91
79461;BME280;68929;42.666;23.324;2023-04-24T03:25:16;94174.06;;;14.23;51.19
79461;BME280;68929;42.666;23.324;2023-04-24T03:27:41;94175.59;;;13.76;53.89
79461;BME280;68929;42.666;23.324;2023-04-24T03:30:07;94188.03;;;13.76;52.90
79461;BME280;68929;42.666;23.324;2023-04-24T03:32:33;94203.75;;;14.15;53.71
79461;BME280;68929;42.666;23.324;2023-04-24T03:34:58;94189.16;;;14.18;53.33
79461;BME280;68929;42.666;23.324;2023-04-24T03:37:23;94202.25;;;14.41;52.24
79461;BME280;68929;42.666;23.324;2023-04-24T03:39:49;94189.00;;;14.46;52.34
79461;BME280;68929;42.666;23.324;2023-04-24T03:42:14;94181.00;;;14.41;52.81
79461;BME280;68929;42.666;23.324;2023-04-24T03:44:40;94189.00;;;14.46;52.84
79461;BME280;68929;42.666;23.324;2023-04-24T03:47:05;94171.47;;;14.45;52.60
79461;BME280;68929;42.666;23.324;2023-04-24T03:49:31;94189.63;;;14.53;52.48
79461;BME280;68929;42.666;23.324;2023-04-24T03:51:56;94185.16;;;14.15;51.35
79461;BME280;68929;42.666;23.324;2023-04-24T03:54:22;94188.97;;;14.03;53.83
79461;BME280;68929;42.666;23.324;2023-04-24T03:56:47;94189.72;;;14.20;53.95
79461;BME280;68929;42.666;23.324;2023-04-24T03:59:12;94182.91;;;14.46;53.10
79461;BME280;68929;42.666;23.324;2023-04-24T04:01:38;94191.22;;;14.54;52.77
79461;BME280;68929;42.666;23.324;2023-04-24T04:04:07;94172.00;;;14.47;52.80
79461;BME280;68929;42.666;23.324;2023-04-24T04:06:33;94189.84;;;14.73;52.53
79461;BME280;68929;42.666;23.324;2023-04-24T04:09:00;94202.94;;;15.01;51.90
79461;BME280;68929;42.666;23.324;2023-04-24T04:11:25;94196.69;;;14.91;51.92
79461;BME280;68929;42.666;23.324;2023-04-24T04:13:50;94202.75;;;14.86;52.25
79461;BME280;68929;42.666;23.324;2023-04-24T04:16:16;94200.66;;;14.88;52.04
79461;BME280;68929;42.666;23.324;2023-04-24T04:18:43;94198.31;;;15.18;51.60
79461;BME280;68929;42.666;23.324;2023-04-24T04:21:08;94151.28;;;15.02;51.18
79461;BME280;68929;42.666;23.324;2023-04-24T04:23:33;94201.00;;;15.50;50.93
79461;BME280;68929;42.666;23.324;2023-04-24T04:25:59;94189.41;;;15.40;50.48
79461;BME280;68929;42.666;23.324;2023-04-24T04:28:25;94175.88;;;15.14;50.61
79461;BME280;68929;42.666;23.324;2023-04-24T04:30:50;94208.53;;;15.32;50.81
79461;BME280;68929;42.666;23.324;2023-04-24T04:33:20;94203.03;;;15.11;51.57
79461;BME280;68929;42.666;23.324;2023-04-24T04:35:45;94194.56;;;15.19;51.19
79461;BME280;68929;42.666;23.324;2023-04-24T04:38:14;94208.25;;;15.28;51.97
79461;BME280;68929;42.666;23.324;2023-04-24T04:40:40;94167.34;;;15.12;51.04
79461;BME280;68929;42.666;23.324;2023-04-24T04:43:05;94148.69;;;15.07;50.77
79461;BME280;68929;42.666;23.324;2023-04-24T04:45:31;94215.31;;;15.44;49.76
79461;BME280;68929;42.666;23.324;2023-04-24T04:47:58;94208.59;;;15.37;50.90
79461;BME280;68929;42.666;23.324;2023-04-24T04:50:26;94217.84;;;15.56;49.24
79461;BME280;68929;42.666;23.324;2023-04-24T04:52:52;94202.00;;;15.17;49.48
79461;BME280;68929;42.666;23.324;2023-04-24T04:55:17;94214.50;;;15.44;49.36
79461;BME280;68929;42.666;23.324;2023-04-24T04:57:43;94188.84;;;15.33;48.81
79461;BME280;68929;42.666;23.324;2023-04-24T05:00:09;94223.19;;;15.61;48.92
79461;BME280;68929;42.666;23.324;2023-04-24T05:02:35;94232.94;;;15.77;50.35
79461;BME280;68929;42.666;23.324;2023-04-24T05:05:01;94210.53;;;15.78;48.78
79461;BME280;68929;42.666;23.324;2023-04-24T05:07:26;94215.38;;;15.86;47.42
79461;BME280;68929;42.666;23.324;2023-04-24T05:09:54;94219.47;;;15.98;48.96
79461;BME280;68929;42.666;23.324;2023-04-24T05:12:19;94232.84;;;16.04;49.06
79461;BME280;68929;42.666;23.324;2023-04-24T05:14:44;94227.19;;;15.95;48.54
79461;BME280;68929;42.666;23.324;2023-04-24T05:17:10;94180.56;;;15.61;48.42
79461;BME280;68929;42.666;23.324;2023-04-24T05:19:36;94239.25;;;15.71;47.19
79461;BME280;68929;42.666;23.324;2023-04-24T05:22:04;94237.81;;;15.90;49.18
79461;BME280;68929;42.666;23.324;2023-04-24T05:24:33;94197.06;;;15.58;48.21
79461;BME280;68929;42.666;23.324;2023-04-24T05:26:59;94220.53;;;15.61;49.63
79461;BME280;68929;42.666;23.324;2023-04-24T05:29:25;94218.66;;;15.61;49.67
79461;BME280;68929;42.666;23.324;2023-04-24T05:31:53;94223.84;;;15.78;48.45
79461;BME280;68929;42.666;23.324;2023-04-24T05:34:19;94211.50;;;15.67;48.84
79461;BME280;68929;42.666;23.324;2023-04-24T05:36:44;94234.63;;;15.93;49.34
79461;BME280;68929;42.666;23.324;2023-04-24T05:39:10;94210.66;;;15.93;48.69
79461;BME280;68929;42.666;23.324;2023-04-24T05:41:39;94226.94;;;15.60;48.04
79461;BME280;68929;42.666;23.324;2023-04-24T05:44:05;94218.84;;;15.50;48.33
79461;BME280;68929;42.666;23.324;2023-04-24T05:46:30;94199.91;;;15.46;48.49
79461;BME280;68929;42.666;23.324;2023-04-24T05:49:01;94235.81;;;15.75;49.02
79461;BME280;68929;42.666;23.324;2023-04-24T05:51:27;94238.06;;;15.57;49.50
79461;BME280;68929;42.666;23.324;2023-04-24T05:53:53;94238.75;;;15.74;49.45
79461;BME280;68929;42.666;23.324;2023-04-24T05:56:19;94212.59;;;15.39;49.42
79461;BME280;68929;42.666;23.324;2023-04-24T05:58:46;94212.59;;;15.71;47.64
79461;BME280;68929;42.666;23.324;2023-04-24T06:01:17;94155.06;;;15.06;48.06
79461;BME280;68929;42.666;23.324;2023-04-24T06:03:43;94229.50;;;15.50;48.31
79461;BME280;68929;42.666;23.324;2023-04-24T06:06:11;94222.16;;;15.62;48.74
79461;BME280;68929;42.666;23.324;2023-04-24T06:08:37;94215.75;;;15.63;48.73
79461;BME280;68929;42.666;23.324;2023-04-24T06:11:06;94208.75;;;15.52;49.41
79461;BME280;68929;42.666;23.324;2023-04-24T06:13:41;94230.22;;;15.72;48.78
79461;BME280;68929;42.666;23.324;2023-04-24T06:16:08;94211.00;;;15.70;49.69
79461;BME280;68929;42.666;23.324;2023-04-24T06:18:34;94199.72;;;15.94;48.70
79461;BME280;68929;42.666;23.324;2023-04-24T06:21:03;94228.16;;;15.84;45.63
79461;BME280;68929;42.666;23.324;2023-04-24T06:23:29;94209.63;;;15.99;48.96
79461;BME280;68929;42.666;23.324;2023-04-24T06:25:57;94192.84;;;15.62;45.56
79461;BME280;68929;42.666;23.324;2023-04-24T06:28:22;94217.50;;;15.47;50.83
79461;BME280;68929;42.666;23.324;2023-04-24T06:30:48;94241.75;;;14.97;47.10
79461;BME280;68929;42.666;23.324;2023-04-24T06:33:13;94224.75;;;14.55;51.88
79461;BME280;68929;42.666;23.324;2023-04-24T06:35:41;94200.81;;;14.55;50.25
79461;BME280;68929;42.666;23.324;2023-04-24T06:38:13;94213.34;;;14.81;50.39
79461;BME280;68929;42.666;23.324;2023-04-24T06:40:45;94222.34;;;15.02;47.46
79461;BME280;68929;42.666;23.324;2023-04-24T06:43:16;94229.47;;;15.45;49.30
79461;BME280;68929;42.666;23.324;2023-04-24T06:45:54;94223.44;;;15.91;48.53
79461;BME280;68929;42.666;23.324;2023-04-24T06:48:19;94242.13;;;16.43;49.30
79461;BME280;68929;42.666;23.324;2023-04-24T06:50:45;94219.34;;;16.20;47.25
79461;BME280;68929;42.666;23.324;2023-04-24T06:53:11;94231.69;;;16.36;49.21
79461;BME280;68929;42.666;23.324;2023-04-24T06:55:44;94218.41;;;16.41;46.60
79461;BME280;68929;42.666;23.324;2023-04-24T06:58:11;94233.03;;;16.91;47.77
79461;BME280;68929;42.666;23.324;2023-04-24T07:00:38;94210.09;;;16.90;47.40
79461;BME280;68929;42.666;23.324;2023-04-24T07:03:03;94219.75;;;17.16;45.82
79461;BME280;68929;42.666;23.324;2023-04-24T07:05:34;94207.16;;;17.01;47.51
79461;BME280;68929;42.666;23.324;2023-04-24T07:08:00;94215.50;;;17.20;46.68
79461;BME280;68929;42.666;23.324;2023-04-24T07:10:29;94210.16;;;17.30;46.47
79461;BME280;68929;42.666;23.324;2023-04-24T07:12:55;94217.63;;;17.38;45.88
79461;BME280;68929;42.666;23.324;2023-04-24T07:15:23;94218.50;;;17.64;43.15
79461;BME280;68929;42.666;23.324;2023-04-24T07:17:49;94219.50;;;17.22;42.25
79461;BME280;68929;42.666;23.324;2023-04-24T07:20:14;94206.88;;;16.93;46.74
79461;BME280;68929;42.666;23.324;2023-04-24T07:22:40;94207.75;;;17.18;44.67
79461;BME280;68929;42.666;23.324;2023-04-24T07:25:07;94196.53;;;17.31;45.94
79461;BME280;68929;42.666;23.324;2023-04-24T07:27:33;94199.78;;;17.64;45.37
79461;BME280;68929;42.666;23.324;2023-04-24T07:29:59;94207.53;;;17.55;43.98
79461;BME280;68929;42.666;23.324;2023-04-24T07:32:31;94209.16;;;17.81;44.85
79461;BME280;68929;42.666;23.324;2023-04-24T07:34:57;94200.84;;;17.98;45.21
79461;BME280;68929;42.666;23.324;2023-04-24T07:37:31;94201.34;;;18.25;43.96
79461;BME280;68929;42.666;23.324;2023-04-24T07:40:10;94169.56;;;17.88;43.71
79461;BME280;68929;42.666;23.324;2023-04-24T07:42:41;94144.22;;;17.55;43.56
79461;BME280;68929;42.666;23.324;2023-04-24T07:45:07;94167.41;;;18.05;44.76
79461;BME280;68929;42.666;23.324;2023-04-24T07:47:32;94195.56;;;18.72;43.81
79461;BME280;68929;42.666;23.324;2023-04-24T07:50:05;94194.47;;;18.83;43.96
79461;BME280;68929;42.666;23.324;2023-04-24T07:52:30;94182.94;;;19.31;41.69
79461;BME280;68929;42.666;23.324;2023-04-24T07:54:56;94185.03;;;18.95;40.57
79461;BME280;68929;42.666;23.324;2023-04-24T07:57:25;94172.78;;;19.28;40.72
79461;BME280;68929;42.666;23.324;2023-04-24T07:59:52;94178.66;;;19.35;41.29
79461;BME280;68929;42.666;23.324;2023-04-24T08:02:28;94168.16;;;19.77;40.85
79461;BME280;68929;42.666;23.324;2023-04-24T08:04:54;94176.34;;;19.86;40.54
79461;BME280;68929;42.666;23.324;2023-04-24T08:07:20;94178.91;;;19.72;40.10
79461;BME280;68929;42.666;23.324;2023-04-24T08:09:49;94182.81;;;19.51;41.23
79461;BME280;68929;42.666;23.324;2023-04-24T08:12:15;94123.75;;;19.61;41.73
79461;BME280;68929;42.666;23.324;2023-04-24T08:14:41;94165.78;;;20.00;38.00
79461;BME280;68929;42.666;23.324;2023-04-24T08:17:06;94175.28;;;19.87;40.61
79461;BME280;68929;42.666;23.324;2023-04-24T08:19:34;94164.50;;;19.63;40.31
79461;BME280;68929;42.666;23.324;2023-04-24T08:22:08;94175.41;;;19.72;39.83
79461;BME280;68929;42.666;23.324;2023-04-24T08:24:38;94178.16;;;19.96;38.54
79461;BME280;68929;42.666;23.324;2023-04-24T08:30:26;94148.47;;;19.87;40.17
79461;BME280;68929;42.666;23.324;2023-04-24T08:32:51;94147.25;;;19.74;41.33
79461;BME280;68929;42.666;23.324;2023-04-24T08:35:17;94144.34;;;19.94;40.80
79461;BME280;68929;42.666;23.324;2023-04-24T08:37:43;94153.25;;;20.19;40.47
79461;BME280;68929;42.666;23.324;2023-04-24T08:40:14;94159.78;;;20.08;41.21
79461;BME280;68929;42.666;23.324;2023-04-24T08:42:42;94136.63;;;20.17;41.12
79461;BME280;68929;42.666;23.324;2023-04-24T08:45:13;94130.94;;;20.47;39.84
79461;BME280;68929;42.666;23.324;2023-04-24T08:47:40;94121.34;;;20.64;37.65
79461;BME280;68929;42.666;23.324;2023-04-24T08:50:07;94151.38;;;20.43;40.62
79461;BME280;68929;42.666;23.324;2023-04-24T08:52:35;94130.16;;;20.23;39.47
79461;BME280;68929;42.666;23.324;2023-04-24T08:55:01;94137.34;;;20.93;37.87
79461;BME280;68929;42.666;23.324;2023-04-24T08:57:27;94116.03;;;20.78;40.13
79461;BME280;68929;42.666;23.324;2023-04-24T08:59:54;94113.84;;;20.80;37.06
79461;BME280;68929;42.666;23.324;2023-04-24T09:02:21;94116.81;;;21.02;37.07
79461;BME280;68929;42.666;23.324;2023-04-24T09:04:57;94120.44;;;21.11;35.85
79461;BME280;68929;42.666;23.324;2023-04-24T09:07:24;94112.69;;;20.86;37.77
79461;BME280;68929;42.666;23.324;2023-04-24T09:09:51;94093.41;;;21.03;37.98
79461;BME280;68929;42.666;23.324;2023-04-24T09:12:17;94094.72;;;21.05;38.17
79461;BME280;68929;42.666;23.324;2023-04-24T09:14:44;94114.38;;;21.57;35.21
79461;BME280;68929;42.666;23.324;2023-04-24T09:17:11;94119.31;;;21.49;36.41
79461;BME280;68929;42.666;23.324;2023-04-24T09:19:42;94084.91;;;21.33;35.94
79461;BME280;68929;42.666;23.324;2023-04-24T09:22:09;94103.59;;;21.24;35.40
79461;BME280;68929;42.666;23.324;2023-04-24T09:24:34;94081.75;;;21.12;37.30
79461;BME280;68929;42.666;23.324;2023-04-24T09:27:00;94098.25;;;21.01;37.56
79461;BME280;68929;42.666;23.324;2023-04-24T09:29:29;94061.31;;;21.11;36.13
79461;BME280;68929;42.666;23.324;2023-04-24T09:31:54;94091.94;;;21.47;36.19
79461;BME280;68929;42.666;23.324;2023-04-24T09:34:26;94096.16;;;21.35;36.43
79461;BME280;68929;42.666;23.324;2023-04-24T09:36:53;94081.88;;;21.21;37.14
79461;BME280;68929;42.666;23.324;2023-04-24T09:39:21;94076.69;;;21.24;35.69
79461;BME280;68929;42.666;23.324;2023-04-24T09:44:18;94092.50;;;21.44;36.85
79461;BME280;68929;42.666;23.324;2023-04-24T09:46:50;94071.34;;;21.57;36.98
79461;BME280;68929;42.666;23.324;2023-04-24T09:49:29;94083.28;;;21.83;35.81
79461;BME280;68929;42.666;23.324;2023-04-24T09:52:05;94077.41;;;21.48;35.28
79461;BME280;68929;42.666;23.324;2023-04-24T09:54:31;94068.22;;;21.49;35.68
79461;BME280;68929;42.666;23.324;2023-04-24T09:57:03;94069.34;;;22.35;35.39
79461;BME280;68929;42.666;23.324;2023-04-24T09:59:29;94062.31;;;22.88;34.14
79461;BME280;68929;42.666;23.324;2023-04-24T10:01:56;94074.84;;;23.07;34.03
79461;BME280;68929;42.666;23.324;2023-04-24T10:04:27;94046.03;;;23.16;33.39
79461;BME280;68929;42.666;23.324;2023-04-24T10:06:56;94044.81;;;23.66;33.07
79461;BME280;68929;42.666;23.324;2023-04-24T10:09:26;94051.28;;;24.09;31.11
79461;BME280;68929;42.666;23.324;2023-04-24T10:11:52;94042.72;;;24.16;31.83
79461;BME280;68929;42.666;23.324;2023-04-24T10:14:20;94037.59;;;24.53;30.91
79461;BME280;68929;42.666;23.324;2023-04-24T10:16:53;94039.59;;;25.13;28.76
79461;BME280;68929;42.666;23.324;2023-04-24T10:19:25;94031.00;;;25.45;29.69
79461;BME280;68929;42.666;23.324;2023-04-24T10:21:57;94022.56;;;25.64;29.62
79461;BME280;68929;42.666;23.324;2023-04-24T10:24:23;94024.16;;;26.49;29.15
79461;BME280;68929;42.666;23.324;2023-04-24T10:26:52;94023.25;;;26.74;26.81
79461;BME280;68929;42.666;23.324;2023-04-24T10:29:18;94023.13;;;26.33;26.47
79461;BME280;68929;42.666;23.324;2023-04-24T10:31:44;94018.09;;;27.02;26.96
79461;BME280;68929;42.666;23.324;2023-04-24T10:34:21;94006.94;;;27.56;26.28
79461;BME280;68929;42.666;23.324;2023-04-24T10:36:59;94001.28;;;27.94;24.30
79461;BME280;68929;42.666;23.324;2023-04-24T10:39:33;93999.88;;;28.45;23.68
79461;BME280;68929;42.666;23.324;2023-04-24T10:42:19;93998.44;;;26.84;26.30
79461;BME280;68929;42.666;23.324;2023-04-24T10:44:47;93998.03;;;27.35;25.16
79461;BME280;68929;42.666;23.324;2023-04-24T10:47:13;93993.19;;;27.61;25.14
79461;BME280;68929;42.666;23.324;2023-04-24T10:49:42;93999.19;;;28.36;25.35
79461;BME280;68929;42.666;23.324;2023-04-24T10:52:08;93992.84;;;28.44;24.95
79461;BME280;68929;42.666;23.324;2023-04-24T10:54:44;93971.44;;;27.61;26.26
79461;BME280;68929;42.666;23.324;2023-04-24T10:57:26;93988.47;;;26.97;26.65
79461;BME280;68929;42.666;23.324;2023-04-24T11:00:29;93970.53;;;25.41;28.29
79461;BME280;68929;42.666;23.324;2023-04-24T11:03:00;93983.56;;;24.71;29.58
79461;BME280;68929;42.666;23.324;2023-04-24T11:05:52;93985.31;;;24.02;31.91
79461;BME280;68929;42.666;23.324;2023-04-24T11:16:27;93961.19;;;21.79;33.09
79461;BME280;68929;42.666;23.324;2023-04-24T11:21:31;94001.78;;;21.04;35.44
79461;BME280;68929;42.666;23.324;2023-04-24T11:27:16;94027.00;;;19.29;38.92
79461;BME280;68929;42.666;23.324;2023-04-24T11:35:19;94041.84;;;18.83;47.47
79461;BME280;68929;42.666;23.324;2023-04-24T11:37:53;94028.91;;;18.51;47.39
79461;BME280;68929;42.666;23.324;2023-04-24T11:40:20;94039.41;;;18.38;43.00
79461;BME280;68929;42.666;23.324;2023-04-24T11:42:47;94021.31;;;18.19;44.79
79461;BME280;68929;42.666;23.324;2023-04-24T11:45:33;93991.91;;;18.14;42.20
79461;BME280;68929;42.666;23.324;2023-04-24T11:48:26;94018.72;;;18.04;46.18
79461;BME280;68929;42.666;23.324;2023-04-24T11:50:52;94001.16;;;17.83;48.59
79461;BME280;68929;42.666;23.324;2023-04-24T11:53:20;93985.00;;;18.03;51.28
79461;BME280;68929;42.666;23.324;2023-04-24T11:55:46;93979.81;;;18.71;49.10
79461;BME280;68929;42.666;23.324;2023-04-24T11:58:12;93989.44;;;19.63;47.21
79461;BME280;68929;42.666;23.324;2023-04-24T12:00:37;93979.38;;;20.21;44.34
79461;BME280;68929;42.666;23.324;2023-04-24T12:03:08;93981.75;;;20.41;41.66
79461;BME280;68929;42.666;23.324;2023-04-24T12:05:33;93991.06;;;20.67;40.08
79461;BME280;68929;42.666;23.324;2023-04-24T12:08:00;93968.56;;;20.63;40.79
79461;BME280;68929;42.666;23.324;2023-04-24T12:10:30;93921.97;;;20.54;40.09
79461;BME280;68929;42.666;23.324;2023-04-24T12:12:57;93983.97;;;21.68;40.04
79461;BME280;68929;42.666;23.324;2023-04-24T12:15:23;93969.78;;;22.08;38.24
79461;BME280;68929;42.666;23.324;2023-04-24T12:17:53;93987.22;;;22.95;36.13
79461;BME280;68929;42.666;23.324;2023-04-24T12:20:28;93991.63;;;22.69;36.62
79461;BME280;68929;42.666;23.324;2023-04-24T12:22:56;93979.59;;;22.26;37.39
79461;BME280;68929;42.666;23.324;2023-04-24T12:25:32;93958.97;;;22.35;35.95
79461;BME280;68929;42.666;23.324;2023-04-24T12:30:30;93963.72;;;22.65;36.69
79461;BME280;68929;42.666;23.324;2023-04-24T12:32:59;93943.72;;;22.88;34.05
79461;BME280;68929;42.666;23.324;2023-04-24T12:35:28;93932.00;;;22.49;36.52
79461;BME280;68929;42.666;23.324;2023-04-24T12:37:54;93937.97;;;23.26;34.90
79461;BME280;68929;42.666;23.324;2023-04-24T12:40:21;93922.66;;;23.13;34.83
79461;BME280;68929;42.666;23.324;2023-04-24T12:42:47;93938.78;;;22.82;35.04
79461;BME280;68929;42.666;23.324;2023-04-24T12:45:24;93935.19;;;22.15;36.54
79461;BME280;68929;42.666;23.324;2023-04-24T12:47:58;93921.03;;;21.96;36.64
79461;BME280;68929;42.666;23.324;2023-04-24T12:50:24;93924.19;;;22.11;36.22
79461;BME280;68929;42.666;23.324;2023-04-24T12:52:51;93890.09;;;22.78;35.57
79461;BME280;68929;42.666;23.324;2023-04-24T12:55:17;93885.94;;;22.72;35.55
79461;BME280;68929;42.666;23.324;2023-04-24T12:57:42;93903.44;;;22.25;36.71
79461;BME280;68929;42.666;23.324;2023-04-24T13:00:08;93888.97;;;21.86;36.44
79461;BME280;68929;42.666;23.324;2023-04-24T13:02:42;93880.50;;;21.52;37.01
79461;BME280;68929;42.666;23.324;2023-04-24T13:05:08;93857.41;;;21.23;36.15
79461;BME280;68929;42.666;23.324;2023-04-24T13:07:34;93887.38;;;21.58;36.74
79461;BME280;68929;42.666;23.324;2023-04-24T13:10:00;93870.09;;;22.13;36.70
79461;BME280;68929;42.666;23.324;2023-04-24T13:12:25;93853.56;;;23.25;33.68
79461;BME280;68929;42.666;23.324;2023-04-24T13:14:51;93847.31;;;24.89;31.74
79461;BME280;68929;42.666;23.324;2023-04-24T13:17:21;93867.59;;;25.75;30.30
79461;BME280;68929;42.666;23.324;2023-04-24T13:19:49;93854.69;;;26.72;28.21